Arenas Valley, New Mexico
Current Conditions -  °F | °C
As of 1:35 AM on Wednesday 26 Nov 2014 (Local Time) from KSVC Reporting Station
Clear Clear  
Wind Chill: 25°   Ceiling: Unl
Heat Index: 34°   Visibility: 10mi
Dew Point:   Wind: 12mph
Humidity: 23%   Direction: 350°N
Pressure: 30.34"   Gusts: NA
Location:  32.79°N, 108.18°W
Report Text: KSVC 260835Z AUTO 35010KT 10SM CLR 01/M18 A3034 RMK AO2
Loading
Personal Weather Stations






























Interactive Weather Map New forecast layout! Learn more

10-Day Weather Forecast

Advertisements
Track Severe Weather on mobile